Nikiski, AK

10:31 PM AKDT on July 23, 2014 (GMT -0800)
MARITIME (MWDE2719) Elev 0 ft | 60.70 °N, 151.40 °W | Change Station

Current weather conditions updated 573 days ago

Rain
Rain
55 °F
Feels Like 55 °F
N
11
Wind Variable Wind from SSW
Gusts 15 mph

Today
High -- | Low -- °F
--% Chance of Precip.
Yesterday
High -- | Low -- °F
Precip. -- in
5:20 AM 11:02 PM
Waning Crescent, 6% visible
Pressure 29.84 in
Visibility 10.0 miles
Clouds Scattered Clouds 5500 ft
Dew Point 51 °F
Humidity 86%
Rainfall -999.00 in
Snow Depth Not available.
UV 0 out of 12
Pollen Not available.
Air Quality Not available.
Flu Activity Not available.
METAR PAEN 240553Z 21008KT 10SM SCT055 13/11 A2984 RMK AO2 SLP105 T01280106 10183 20128 53005

More Conditions Fewer Conditions

Pressure 29.84 in
Visibility 10.0 miles
Clouds Scattered Clouds 5500 ft
Dew Point 51 °F
Humidity 86%
Rainfall -999.00 in
Snow Depth Not available.
UV 0 out of 12
Pollen Not available.
Air Quality Not available.
Flu Activity Not available.
METAR PAEN 240553Z 21008KT 10SM SCT055 13/11 A2984 RMK AO2 SLP105 T01280106 10183 20128 53005

More Conditions Fewer Conditions

10-Day Weather Forecast

Almanac

Astronomy

Jul. 23, 2014 Rise Set
Actual Time 5:20 AM AKDT 11:02 PM AKDT
Civil Twilight 4:07 AM AKDT 12:14 AM AKDT
Nautical Twilight Sun does not rise 1:39 AM AKDT
Astronomical Twilight Sun does not rise Sun does not rise
Moon 2:57 AM AKDT (7/23) 8:29 PM AKDT (7/23)
Length of Visible Light 20h 07m
Length of Day
17h 41m
Tomorrow will be 4m 37s shorter.
Waning Crescent, 6% of the Moon is Illuminated
Jul 24
Waning Crescent
Jul 26
New
Aug 3
First Quarter
Aug 10
Full
Aug 17
Last Quarter

Community

WunderPhotos

Upload Photos

1,736,950 photos uploaded!

Nearby

Snow Depth

Station Depth Elevation
Cooper Lake 15 in 1200 ft
Summit Creek 0 in 1400 ft
Point Mackenzie 1 in 200 ft
MF Bradley River 28 in 2300 ft
Mcneil Canyon 1 in 1320 ft

Earthquake Activity

City Distance Mag. Time & Date
No recent earthquake activity has been reported nearby.
Minimum magnitude displayed is 2.5.

Coastal Water Temperatures

Place Temperature
No Stations Reporting

Nearby Weather Stations

Station Location Temp. Dew Point Humidity Wind Precip. Elev Updated Type
Kenai, Kenai, AK 54.6 °F 52 °F 92% WSW  at  0.0 mph 0.00 in / hr 95 ft 10:31 PM AKDT Rapid Fire
RAWS SWANSON RIVER AK, Sterling, AK 59 °F 56 °F 91% North  at  0 mph 0.00 in / hr 215 ft 9:50 PM AKDT MADIS
W. Corral PWS, Soldotna, AK 57.2 °F 53 °F 85% South  at  0.7 mph 0.00 in / hr 110 ft 10:31 PM AKDT Rapid Fire
RAWS SOLDOTNA AKKKS AK, Soldotna, AK 59 °F 51 °F 74% SW  at  4 mph 0.00 in / hr 154 ft 9:27 PM AKDT MADIS
Funny River, Soldotna, AK 58.2 °F 53 °F 83% WSW  at  0.0 mph 0.00 in / hr 208 ft 10:31 PM AKDT Rapid Fire
Funny River, AK 57.9 °F 56 °F 92% ESE  at  0.0 mph 0.00 in / hr 208 ft 10:31 PM AKDT Rapid Fire

Show More Stations Show Fewer Stations